Time;durP1;ratioP1;P1;durP2;ratioP2;P2;SDS_P1;SDS_P2;PMS_P1;PMS_P2;Temp;Humidity;BMP_temperature;BMP_pressure;BME280_temperature;BME280_humidity;BME280_pressure;Samples;Min_cycle;Max_cycle;Signal;HPM_P1;HPM_P2
2022/07/31 00:00:39;;;;;;;2.75;1.40;;;;;;;23.35;92.01;99745.88;4998221;28;20080;-79
2022/07/31 00:03:06;;;;;;;6.43;2.30;;;;;;;23.12;92.71;99746.47;5001689;28;20077;-79
2022/07/31 00:05:32;;;;;;;2.38;1.40;;;;;;;23.17;92.61;99743.94;5003173;28;20482;-78
2022/07/31 00:07:58;;;;;;;3.10;1.50;;;;;;;23.20;92.47;99740.81;4999357;28;20049;-78
2022/07/31 00:10:24;;;;;;;2.63;1.52;;;;;;;23.14;92.42;99748.94;5002730;28;20427;-79
2022/07/31 00:12:50;;;;;;;4.50;1.60;;;;;;;23.14;92.29;99736.31;4999588;28;20118;-79
2022/07/31 00:15:16;;;;;;;4.63;1.75;;;;;;;23.09;91.53;99736.13;5005986;28;20112;-77
2022/07/31 00:17:43;;;;;;;1.80;1.70;;;;;;;23.12;91.34;99746.47;4995705;28;20390;-79
2022/07/31 00:20:14;;;;;;;2.45;1.27;;;;;;;23.12;91.63;99746.47;5003674;28;20060;-79
2022/07/31 00:22:45;;;;;;;6.15;1.65;;;;;;;23.09;91.70;99754.97;4998386;28;20069;-81
2022/07/31 00:25:12;;;;;;;3.05;1.60;;;;;;;22.94;92.00;99749.09;4994730;28;20092;-82
2022/07/31 00:27:39;;;;;;;1.67;1.23;;;;;;;22.81;93.11;99743.78;5001004;28;20060;-81
2022/07/31 00:30:06;;;;;;;3.13;1.40;;;;;;;22.73;93.64;99746.75;4998948;28;20039;-81
2022/07/31 00:32:31;;;;;;;4.43;1.42;;;;;;;22.52;95.04;99738.97;4984689;28;20471;-80
2022/07/31 00:34:57;;;;;;;3.60;1.50;;;;;;;22.61;94.77;99743.09;5001435;28;20065;-80
2022/07/31 00:37:23;;;;;;;2.15;1.50;;;;;;;22.56;95.77;99740.22;5001991;28;20077;-78
2022/07/31 00:39:49;;;;;;;3.28;2.25;;;;;;;22.40;96.87;99742.34;5002099;28;20038;-79
2022/07/31 00:42:22;;;;;;;2.08;1.40;;;;;;;22.35;97.50;99736.78;5000134;28;20030;-78
2022/07/31 00:44:48;;;;;;;2.50;1.92;;;;;;;22.39;97.07;99746.06;4997693;28;20046;-78
2022/07/31 00:47:15;;;;;;;1.73;1.40;;;;;;;22.37;97.77;99745.47;5001439;28;20029;-78
2022/07/31 00:49:41;;;;;;;1.98;1.77;;;;;;;22.41;97.70;99743.19;4997300;28;20030;-77
2022/07/31 00:52:07;;;;;;;2.38;1.70;;;;;;;22.50;97.56;99746.44;4997935;28;20057;-79
2022/07/31 00:54:33;;;;;;;1.80;1.70;;;;;;;22.48;97.30;99753.91;5003070;28;20041;-79
2022/07/31 00:56:58;;;;;;;1.90;1.55;;;;;;;22.52;97.22;99745.19;4998537;28;20035;-79
2022/07/31 00:59:26;;;;;;;6.53;2.30;;;;;;;22.35;98.12;99744.03;5002284;28;20030;-78
2022/07/31 01:01:52;;;;;;;4.82;1.65;;;;;;;22.31;98.28;99754.41;5000809;28;20041;-79
2022/07/31 01:04:18;;;;;;;3.88;2.10;;;;;;;22.37;98.61;99758.09;5002770;28;20487;-79
2022/07/31 01:06:44;;;;;;;2.67;1.70;;;;;;;22.42;98.89;99756.41;4999553;28;20064;-79
2022/07/31 01:09:11;;;;;;;2.63;1.67;;;;;;;22.30;100.00;99758.13;4999078;28;20451;-79
2022/07/31 01:11:59;;;;;;;2.88;1.52;;;;;;;22.37;99.95;99761.63;5003555;28;20483;-78
2022/07/31 01:14:31;;;;;;;2.90;2.10;;;;;;;22.39;99.46;99751.44;4987118;28;20411;-79
2022/07/31 01:16:58;;;;;;;3.50;1.83;;;;;;;22.43;99.15;99759.94;4997916;28;20049;-79
2022/07/31 01:19:40;;;;;;;4.32;1.60;;;;;;;22.40;98.32;99745.03;5002307;28;20034;-78
2022/07/31 01:22:26;;;;;;;2.70;1.60;;;;;;;22.50;97.36;99762.59;4998499;28;20153;-78
2022/07/31 01:25:04;;;;;;;2.17;1.58;;;;;;;22.30;97.54;99758.13;4998635;28;20026;-79
2022/07/31 01:28:20;;;;;;;4.00;1.60;;;;;;;22.18;99.00;99759.81;4997982;28;20069;-77
2022/07/31 01:30:55;;;;;;;2.50;1.60;;;;;;;22.27;98.29;99752.31;5016398;28;20041;-77
2022/07/31 01:33:30;;;;;;;5.68;1.55;;;;;;;22.37;98.23;99761.63;4993473;28;20039;-78
2022/07/31 01:36:07;;;;;;;3.90;1.70;;;;;;;22.42;98.75;99753.72;5000567;28;20064;-79
2022/07/31 01:38:39;;;;;;;3.13;1.45;;;;;;;22.25;100.00;99752.56;5004124;28;20072;-79
2022/07/31 01:41:09;;;;;;;2.95;1.50;;;;;;;22.18;100.00;99765.19;5004536;28;20149;-79
2022/07/31 01:43:39;;;;;;;5.93;1.40;;;;;;;22.23;100.00;99757.31;5004785;28;20095;-79
2022/07/31 01:46:08;;;;;;;1.53;1.43;;;;;;;22.26;100.00;99756.09;5008521;28;20052;-80
2022/07/31 01:48:35;;;;;;;1.58;1.27;;;;;;;21.85;100.00;99748.34;5006285;28;20151;-79
2022/07/31 01:51:02;;;;;;;2.83;1.50;;;;;;;21.82;100.00;99757.63;5005514;28;20046;-79
2022/07/31 01:53:34;;;;;;;2.65;1.75;;;;;;;21.90;100.00;99768.16;5006535;28;20026;-80
2022/07/31 01:56:01;;;;;;;4.82;1.70;;;;;;;21.75;100.00;99764.03;5008571;28;20052;-79
2022/07/31 01:58:31;;;;;;;2.13;1.80;;;;;;;21.78;100.00;99760.94;5008105;28;20080;-80
2022/07/31 02:01:02;;;;;;;2.88;1.60;;;;;;;21.83;100.00;99763.84;5005181;28;20455;-79
2022/07/31 02:03:29;;;;;;;2.00;1.58;;;;;;;21.87;100.00;99763.19;5008620;28;20084;-79
2022/07/31 02:05:56;;;;;;;1.98;1.45;;;;;;;21.86;100.00;99771.44;5002764;28;21768;-79
2022/07/31 02:08:24;;;;;;;1.52;1.42;;;;;;;21.88;100.00;99774.78;5000491;28;20120;-79
2022/07/31 02:10:51;;;;;;;3.42;1.70;;;;;;;21.88;100.00;99769.41;5003988;28;20375;-79
2022/07/31 02:13:18;;;;;;;6.90;1.67;;;;;;;21.90;100.00;99772.72;5002273;28;20443;-78
2022/07/31 02:15:46;;;;;;;1.75;1.65;;;;;;;21.71;100.00;99769.03;5006553;28;20117;-78
2022/07/31 02:18:15;;;;;;;1.80;1.50;;;;;;;21.73;100.00;99777.72;4999454;28;20057;-79
2022/07/31 02:20:59;;;;;;;1.90;1.80;;;;;;;21.80;100.00;99780.34;5001726;28;20049;-79
2022/07/31 02:23:24;;;;;;;2.63;1.73;;;;;;;21.83;100.00;99770.03;5014565;28;20089;-78
2022/07/31 02:25:51;;;;;;;1.70;1.60;;;;;;;21.79;100.00;99776.03;5001514;28;20053;-78
2022/07/31 02:28:21;;;;;;;4.07;1.45;;;;;;;21.82;100.00;99775.59;5004031;28;20037;-78
2022/07/31 02:30:48;;;;;;;3.85;1.70;;;;;;;21.80;100.00;99761.56;4986750;28;20553;-77
2022/07/31 02:33:20;;;;;;;3.15;1.60;;;;;;;21.82;100.00;99764.88;5012949;28;20037;-77
2022/07/31 02:35:48;;;;;;;1.83;1.50;;;;;;;21.74;100.00;99773.13;5005596;28;20167;-78
2022/07/31 02:38:18;;;;;;;2.72;1.50;;;;;;;21.68;100.00;99764.06;5003883;28;20061;-78
2022/07/31 02:40:44;;;;;;;1.80;1.70;;;;;;;21.54;100.00;99763.25;5002458;28;20030;-79
2022/07/31 02:43:11;;;;;;;4.57;1.77;;;;;;;21.41;100.00;99763.28;5002702;28;20045;-79
2022/07/31 02:45:37;;;;;;;3.60;1.60;;;;;;;21.07;100.00;99760.75;5000138;28;20073;-78
2022/07/31 02:48:04;;;;;;;3.30;1.60;;;;;;;20.96;100.00;99759.53;5001313;28;20056;-79
2022/07/31 02:50:30;;;;;;;4.30;2.10;;;;;;;21.04;100.00;99751.25;5002224;28;20517;-79
2022/07/31 02:52:57;;;;;;;1.50;1.30;;;;;;;21.08;100.00;99757.06;4999124;28;20038;-79
2022/07/31 02:55:23;;;;;;;3.03;1.63;;;;;;;20.98;100.00;99751.25;5007971;28;20035;-79
2022/07/31 02:57:50;;;;;;;3.25;1.65;;;;;;;20.85;100.00;99752.88;5006533;28;20100;-79
2022/07/31 03:00:22;;;;;;;2.40;1.90;;;;;;;20.85;100.00;99742.16;5015948;28;20553;-77
2022/07/31 03:02:50;;;;;;;6.93;1.90;;;;;;;20.93;100.00;99743.00;5001272;28;20092;-79
2022/07/31 03:05:16;;;;;;;3.28;2.05;;;;;;;21.01;100.00;99750.84;5000271;28;20026;-79
2022/07/31 03:07:43;;;;;;;2.55;1.63;;;;;;;21.00;100.00;99746.50;4997231;28;20089;-78
2022/07/31 03:10:12;;;;;;;4.47;1.90;;;;;;;21.00;100.00;99746.50;5001428;28;20500;-79
2022/07/31 03:12:53;;;;;;;2.45;2.13;;;;;;;20.98;100.00;99745.88;4999420;28;20145;-78
2022/07/31 03:15:22;;;;;;;4.65;1.77;;;;;;;21.00;100.00;99747.34;5001439;28;20084;-78
2022/07/31 03:17:52;;;;;;;2.63;1.77;;;;;;;21.02;100.00;99752.50;4994297;28;20414;-77
2022/07/31 03:20:26;;;;;;;2.33;2.10;;;;;;;20.80;100.00;99752.66;5002830;28;20129;-78
2022/07/31 03:22:55;;;;;;;4.30;1.85;;;;;;;20.76;100.00;99748.75;5002376;28;20065;-78
2022/07/31 03:25:23;;;;;;;5.57;1.60;;;;;;;20.65;100.00;99745.84;5003315;28;20045;-78
2022/07/31 03:27:49;;;;;;;6.40;2.55;;;;;;;20.55;100.00;99746.25;5000741;28;20096;-78
2022/07/31 03:30:17;;;;;;;6.32;2.00;;;;;;;20.51;100.00;99744.97;5003641;28;20030;-78
2022/07/31 03:32:44;;;;;;;4.25;2.20;;;;;;;20.54;100.00;99747.28;4996217;28;20035;-78
2022/07/31 03:35:10;;;;;;;5.18;1.90;;;;;;;20.56;100.00;99750.56;4998298;28;20121;-77
2022/07/31 03:37:36;;;;;;;1.90;1.80;;;;;;;20.53;100.00;99748.28;5003680;28;20028;-77
2022/07/31 03:40:02;;;;;;;2.58;1.90;;;;;;;20.42;100.00;99743.53;5002834;28;20037;-78
2022/07/31 03:42:30;;;;;;;2.42;2.22;;;;;;;20.40;100.00;99748.25;5000035;28;20146;-78
2022/07/31 03:44:56;;;;;;;5.22;1.98;;;;;;;20.44;100.00;99744.97;5003132;28;20041;-78
2022/07/31 03:47:22;;;;;;;6.15;2.08;;;;;;;20.48;100.00;99740.03;4999031;28;20030;-78
2022/07/31 03:49:48;;;;;;;4.13;2.30;;;;;;;20.52;100.00;99743.97;5003014;28;20030;-79
2022/07/31 03:52:13;;;;;;;2.95;2.15;;;;;;;20.56;100.00;99745.19;4996715;28;20092;-80
2022/07/31 03:54:41;;;;;;;4.43;2.13;;;;;;;20.39;100.00;99741.22;5001892;28;20034;-78
2022/07/31 03:57:19;;;;;;;2.75;2.15;;;;;;;20.29;100.00;99746.13;4995103;28;20044;-77
2022/07/31 03:59:45;;;;;;;5.00;2.22;;;;;;;20.28;100.00;99739.09;5001082;28;20459;-78
2022/07/31 04:02:11;;;;;;;4.65;2.67;;;;;;;20.31;100.00;99738.72;5005194;28;20037;-77
2022/07/31 04:04:41;;;;;;;5.63;2.08;;;;;;;20.37;100.00;99737.94;5002978;28;20033;-79
2022/07/31 04:07:07;;;;;;;2.08;1.98;;;;;;;20.36;100.00;99744.31;4998874;28;20522;-78
2022/07/31 04:09:33;;;;;;;6.63;2.33;;;;;;;20.08;100.00;99754.28;4998686;28;20034;-79
2022/07/31 04:11:59;;;;;;;6.78;2.20;;;;;;;19.83;100.00;99751.25;5001689;28;20045;-79
2022/07/31 04:14:25;;;;;;;4.55;2.50;;;;;;;19.73;100.00;99757.00;4998962;28;20034;-79
2022/07/31 04:16:50;;;;;;;3.28;2.08;;;;;;;19.75;100.00;99749.56;5001891;28;20177;-79
2022/07/31 04:19:16;;;;;;;5.65;1.83;;;;;;;19.83;100.00;99757.44;4995507;28;20025;-79
2022/07/31 04:21:42;;;;;;;4.25;2.30;;;;;;;19.77;100.00;99752.88;4998713;28;20146;-79
2022/07/31 04:24:10;;;;;;;2.72;2.25;;;;;;;19.68;100.00;99747.88;5001337;28;20033;-79
2022/07/31 04:27:08;;;;;;;5.32;2.10;;;;;;;19.58;100.00;99753.56;4987780;28;20037;-79
2022/07/31 04:29:38;;;;;;;;;;;;;;;19.59;100.00;99748.03;4983720;28;20038;-78
2022/07/31 04:32:04;;;;;;;2.72;2.42;;;;;;;19.62;100.00;99752.16;4999185;28;20004;-78
2022/07/31 04:34:39;;;;;;;6.13;2.30;;;;;;;19.70;100.00;99751.19;4994603;28;20088;-78
2022/07/31 04:37:05;;;;;;;2.83;1.88;;;;;;;19.74;100.00;99758.63;4997987;28;20034;-78
2022/07/31 04:39:30;;;;;;;2.38;2.15;;;;;;;19.73;100.00;99759.66;4998446;28;20034;-78
2022/07/31 04:41:57;;;;;;;2.65;2.17;;;;;;;19.66;100.00;99757.97;5000210;28;20061;-77
2022/07/31 04:44:22;;;;;;;2.55;2.20;;;;;;;19.64;100.00;99758.16;5000267;28;20058;-77
2022/07/31 04:46:51;;;;;;;2.83;2.20;;;;;;;19.70;100.00;99762.72;5002476;28;20034;-78
2022/07/31 04:49:17;;;;;;;3.78;2.55;;;;;;;19.79;100.00;99766.09;4996778;28;20022;-78
2022/07/31 04:51:43;;;;;;;3.50;2.47;;;;;;;19.71;100.00;99764.38;5002906;28;20538;-78
2022/07/31 04:54:10;;;;;;;8.48;3.10;;;;;;;19.79;100.00;99756.16;4998075;28;20122;-78
2022/07/31 04:56:40;;;;;;;6.13;2.58;;;;;;;19.81;100.00;99754.13;4999208;28;20475;-79
2022/07/31 04:59:14;;;;;;;4.93;3.22;;;;;;;19.86;100.00;99756.22;5000474;28;20517;-80
2022/07/31 05:01:44;;;;;;;3.22;3.03;;;;;;;19.77;100.00;99760.91;5000827;28;20446;-78
2022/07/31 05:04:12;;;;;;;4.57;3.05;;;;;;;19.79;100.00;99766.88;4997110;28;20030;-78
2022/07/31 05:06:44;;;;;;;2.78;2.58;;;;;;;19.85;100.00;99755.38;4999320;28;20061;-77
2022/07/31 05:09:13;;;;;;;8.27;3.38;;;;;;;19.97;100.00;99753.81;4995085;28;20038;-78
2022/07/31 05:11:40;;;;;;;7.38;3.40;;;;;;;20.11;100.00;99759.22;4996076;28;20454;-78
2022/07/31 05:14:08;;;;;;;5.95;2.92;;;;;;;20.23;100.00;99752.28;4997449;28;20136;-78
2022/07/31 05:16:34;;;;;;;3.25;2.92;;;;;;;20.28;100.00;99760.53;4997220;28;20034;-77
2022/07/31 05:19:01;;;;;;;4.00;3.00;;;;;;;20.29;100.00;99751.47;4998263;28;20034;-78
2022/07/31 05:21:45;;;;;;;3.60;3.38;;;;;;;20.34;100.00;99759.78;4996919;28;20414;-78
2022/07/31 05:24:31;;;;;;;4.63;3.47;;;;;;;20.40;100.00;99764.31;4997738;28;20038;-78
2022/07/31 05:27:10;;;;;;;4.10;3.17;;;;;;;20.41;100.00;99760.63;4997367;28;20490;-76
2022/07/31 05:29:38;;;;;;;4.15;3.75;;;;;;;20.32;100.00;99764.53;5000115;28;20030;-78
2022/07/31 05:32:05;;;;;;;6.65;3.40;;;;;;;20.40;100.00;99761.66;5011829;28;20510;-77
2022/07/31 05:34:31;;;;;;;5.07;3.95;;;;;;;20.46;100.00;99768.88;4995978;28;20515;-77
2022/07/31 05:37:02;;;;;;;5.63;3.92;;;;;;;20.55;100.00;99767.69;4995114;28;20824;-78
2022/07/31 05:39:30;;;;;;;4.72;4.40;;;;;;;20.64;100.00;99771.81;4981331;28;20435;-77
2022/07/31 05:42:14;;;;;;;4.93;4.25;;;;;;;20.73;100.00;99770.63;5002884;28;20037;-78
2022/07/31 05:44:53;;;;;;;4.88;4.45;;;;;;;20.79;100.00;99772.47;4997116;28;20034;-77
2022/07/31 05:47:18;;;;;;;4.80;4.32;;;;;;;20.84;100.00;99770.03;4998238;28;20038;-78
2022/07/31 05:49:44;;;;;;;6.85;4.50;;;;;;;20.90;100.00;99775.59;4998026;28;20121;-78
2022/07/31 05:52:10;;;;;;;5.72;5.25;;;;;;;20.99;100.00;99775.19;5002945;28;20035;-78
2022/07/31 05:54:35;;;;;;;6.15;4.88;;;;;;;21.08;100.00;99774.00;4999019;28;20042;-78
2022/07/31 05:57:19;;;;;;;5.95;5.45;;;;;;;21.18;100.00;99781.66;4979844;28;20049;-77
2022/07/31 05:59:45;;;;;;;6.65;6.05;;;;;;;21.26;100.00;99780.63;4984061;28;20034;-77
2022/07/31 06:02:12;;;;;;;9.00;5.78;;;;;;;21.32;100.00;99780.63;4994316;28;20039;-76
2022/07/31 06:04:57;;;;;;;5.88;4.88;;;;;;;21.37;100.00;99778.16;4970207;28;20034;-78
2022/07/31 06:07:23;;;;;;;7.22;5.13;;;;;;;21.45;100.00;99780.59;4981547;28;20027;-78
2022/07/31 06:09:49;;;;;;;7.38;6.68;;;;;;;21.55;100.00;99781.03;4989023;28;20039;-78
2022/07/31 06:12:15;;;;;;;6.10;5.60;;;;;;;21.62;100.00;99787.19;4986751;28;20034;-78
2022/07/31 06:14:41;;;;;;;6.35;5.85;;;;;;;21.72;100.00;99786.78;4981952;28;20022;-78
2022/07/31 06:17:16;;;;;;;5.93;5.38;;;;;;;21.82;100.00;99786.34;4983517;28;20086;-76
2022/07/31 06:19:41;;;;;;;8.95;5.00;;;;;;;21.91;100.00;99779.72;4989179;28;20030;-78
2022/07/31 06:22:08;;;;;;;6.03;5.45;;;;;;;22.01;100.00;99774.78;4986697;28;20040;-78
2022/07/31 06:24:36;;;;;;;5.68;5.18;;;;;;;22.07;100.00;99790.06;5002996;28;20026;-78
2022/07/31 06:27:02;;;;;;;6.18;5.68;;;;;;;22.16;100.00;99788.75;4995525;28;20034;-78
2022/07/31 06:29:32;;;;;;;5.78;5.25;;;;;;;22.17;100.00;99790.41;4989301;28;20035;-78
2022/07/31 06:31:58;;;;;;;5.80;5.30;;;;;;;22.23;100.00;99786.88;4998901;28;20035;-71
2022/07/31 06:34:24;;;;;;;5.93;5.43;;;;;;;22.32;100.00;99788.31;4996584;28;20072;-71
2022/07/31 06:36:50;;;;;;;5.72;5.32;;;;;;;22.36;100.00;99794.91;4995022;28;20045;-71
2022/07/31 06:39:19;;;;;;;5.72;5.22;;;;;;;22.42;100.00;99804.81;4994892;28;20038;-71
2022/07/31 06:42:07;;;;;;;8.50;4.65;;;;;;;22.48;100.00;99805.81;5003760;28;20041;-72
2022/07/31 06:44:33;;;;;;;5.10;4.70;;;;;;;22.54;100.00;99801.44;5004072;28;20061;-73
2022/07/31 06:47:20;;;;;;;4.47;3.72;;;;;;;22.66;100.00;99805.13;5001953;28;20555;-71
2022/07/31 06:50:24;;;;;;;3.40;3.10;;;;;;;22.77;100.00;99813.38;4948175;29;20126;-73
2022/07/31 06:53:05;;;;;;;5.97;3.70;;;;;;;22.80;99.17;99812.91;4934485;29;20637;-72
2022/07/31 06:55:31;;;;;;;3.53;2.72;;;;;;;22.90;99.14;99815.16;4938158;29;20051;-72
2022/07/31 06:57:57;;;;;;;3.45;2.80;;;;;;;22.96;98.04;99806.22;4958330;28;20126;-72
2022/07/31 07:00:23;;;;;;;3.38;3.03;;;;;;;23.07;97.58;99818.16;4951974;29;20027;-74
2022/07/31 07:02:50;;;;;;;3.70;3.30;;;;;;;23.14;97.33;99813.56;4951727;29;20450;-73
2022/07/31 07:05:16;;;;;;;4.00;3.60;;;;;;;23.18;97.13;99818.28;4957178;28;20500;-72
2022/07/31 07:07:41;;;;;;;3.25;3.05;;;;;;;23.26;97.42;99812.63;4935415;29;20047;-72
2022/07/31 07:10:08;;;;;;;4.20;3.80;;;;;;;23.36;96.96;99822.09;4950989;29;20035;-72
2022/07/31 07:13:00;;;;;;;4.18;3.70;;;;;;;23.28;95.46;99818.63;4941769;29;20055;-72
2022/07/31 07:15:29;;;;;;;6.68;3.53;;;;;;;23.39;95.40;99819.78;4919277;29;20051;-73
2022/07/31 07:17:54;;;;;;;3.88;3.58;;;;;;;23.51;94.39;99826.13;4946649;29;20032;-71
2022/07/31 07:20:30;;;;;;;4.78;4.47;;;;;;;23.57;95.46;99819.03;4944729;28;20482;-71
2022/07/31 07:22:56;;;;;;;5.10;4.28;;;;;;;23.66;95.12;99815.03;5001765;28;20165;-71
2022/07/31 07:25:34;;;;;;;4.25;3.80;;;;;;;23.77;95.23;99814.31;5000280;28;20031;-71
2022/07/31 07:28:00;;;;;;;5.28;4.57;;;;;;;23.82;96.24;99806.38;4991349;28;20031;-72
2022/07/31 07:30:27;;;;;;;6.20;4.28;;;;;;;23.87;95.86;99806.53;4976874;28;20030;-72
2022/07/31 07:32:55;;;;;;;4.28;3.97;;;;;;;23.93;95.89;99802.94;4989765;28;20077;-72
2022/07/31 07:35:21;;;;;;;4.38;3.75;;;;;;;24.04;96.06;99809.44;5002983;28;20049;-72
2022/07/31 07:37:52;;;;;;;6.45;4.30;;;;;;;24.13;95.34;99808.13;4996775;28;20320;-70
2022/07/31 07:40:18;;;;;;;4.10;3.63;;;;;;;24.24;95.16;99798.50;5002696;28;20034;-72
2022/07/31 07:42:44;;;;;;;4.50;3.53;;;;;;;24.34;95.14;99801.47;5002541;28;20129;-71
2022/07/31 07:45:11;;;;;;;3.70;3.40;;;;;;;24.45;95.03;99800.72;5001282;28;20137;-73
2022/07/31 07:47:37;;;;;;;6.28;3.70;;;;;;;24.50;94.15;99806.28;4998257;28;20026;-71
2022/07/31 07:50:05;;;;;;;4.68;4.20;;;;;;;24.55;92.93;99808.28;4998542;28;20390;-70
2022/07/31 07:52:51;;;;;;;6.03;4.45;;;;;;;24.59;93.18;99801.38;4986108;28;20041;-69
2022/07/31 07:55:39;;;;;;;4.72;3.97;;;;;;;24.66;92.58;99797.53;4998845;28;20046;-70
2022/07/31 07:58:30;;;;;;;6.03;4.18;;;;;;;24.75;92.30;99806.94;4997797;28;20038;-72
2022/07/31 08:01:22;;;;;;;4.05;3.42;;;;;;;24.86;91.79;99808.03;4996582;28;20042;-71
2022/07/31 08:03:52;;;;;;;5.28;4.78;;;;;;;24.93;90.01;99807.97;4999999;28;20046;-71
2022/07/31 08:06:22;;;;;;;4.00;3.70;;;;;;;24.98;88.91;99802.72;4992354;28;20036;-72
2022/07/31 08:08:48;;;;;;;3.65;3.35;;;;;;;25.09;88.42;99801.94;4990674;28;20403;-72
2022/07/31 08:11:32;;;;;;;3.80;3.50;;;;;;;25.20;87.08;99798.44;5001995;28;20101;-70
2022/07/31 08:14:08;;;;;;;3.97;3.45;;;;;;;25.29;86.62;99797.03;4983489;28;20112;-73
2022/07/31 08:17:03;;;;;;;3.67;3.38;;;;;;;25.40;85.74;99796.25;4937179;28;20039;-71
2022/07/31 08:19:29;;;;;;;3.97;3.33;;;;;;;25.45;85.25;99790.97;4984619;28;20038;-71
2022/07/31 08:21:55;;;;;;;5.45;3.60;;;;;;;25.52;83.96;99791.66;4996510;28;20034;-70
2022/07/31 08:24:20;;;;;;;4.57;2.90;;;;;;;25.63;83.73;99792.75;4997717;28;20049;-73
2022/07/31 08:29:31;;;;;;;3.67;2.58;;;;;;;25.79;81.54;99785.84;4996371;28;20363;-72
2022/07/31 08:32:12;;;;;;;4.10;2.55;;;;;;;25.89;81.31;99781.47;4993546;28;20029;-72
2022/07/31 08:35:05;;;;;;;3.75;2.50;;;;;;;26.01;79.97;99779.59;4995345;28;20140;-73
2022/07/31 08:37:30;;;;;;;2.90;2.60;;;;;;;26.13;79.36;99784.16;4993844;28;20073;-72
2022/07/31 08:39:56;;;;;;;2.85;2.55;;;;;;;26.21;78.83;99775.69;4994966;28;20117;-71
2022/07/31 08:42:23;;;;;;;3.70;2.28;;;;;;;26.26;77.59;99776.63;4994226;28;20157;-72
2022/07/31 08:44:49;;;;;;;2.80;2.60;;;;;;;26.33;76.91;99776.50;4991681;28;20034;-73
2022/07/31 08:47:17;;;;;;;2.25;2.05;;;;;;;26.37;74.18;99778.47;4998498;28;20128;-73
2022/07/31 08:49:46;;;;;;;2.22;2.05;;;;;;;26.45;69.71;99769.97;4990650;28;20168;-75
2022/07/31 08:52:18;;;;;;;2.33;2.03;;;;;;;26.54;69.58;99780.41;4999841;28;20395;-71
2022/07/31 08:55:16;;;;;;;2.40;2.20;;;;;;;26.62;69.92;99777.34;4988616;28;20053;-73
2022/07/31 08:57:46;;;;;;;2.30;1.48;;;;;;;26.69;62.90;99780.69;5000764;28;20050;-73
2022/07/31 09:00:16;;;;;;;2.65;1.50;;;;;;;26.75;60.34;99779.72;5001537;28;20048;-72
2022/07/31 09:02:42;;;;;;;1.77;1.67;;;;;;;26.82;63.16;99769.56;5000086;28;20052;-73
2022/07/31 09:05:28;;;;;;;1.50;1.40;;;;;;;26.88;62.81;99768.63;4984568;28;20046;-73
2022/07/31 09:07:54;;;;;;;1.85;1.75;;;;;;;26.96;59.94;99776.38;4983151;28;20084;-70
2022/07/31 09:10:27;;;;;;;2.65;1.50;;;;;;;27.05;57.99;99782.19;4999917;28;20026;-74
2022/07/31 09:12:54;;;;;;;3.28;1.67;;;;;;;27.12;56.46;99780.97;4995600;28;20177;-76
2022/07/31 09:15:28;;;;;;;2.47;1.52;;;;;;;27.20;56.52;99780.59;4999743;28;20403;-75
2022/07/31 09:17:56;;;;;;;2.03;1.83;;;;;;;27.27;59.61;99780.44;5000355;28;20387;-75
2022/07/31 09:20:24;;;;;;;2.20;2.00;;;;;;;27.30;60.69;99778.03;5001453;28;20038;-75
2022/07/31 09:23:05;;;;;;;2.07;1.77;;;;;;;27.35;60.93;99774.59;5000294;28;20046;-75
2022/07/31 09:25:32;;;;;;;2.42;2.22;;;;;;;27.39;61.39;99780.34;4997788;28;20297;-75
2022/07/31 09:28:04;;;;;;;1.90;1.75;;;;;;;27.41;58.37;99773.59;4990293;28;20428;-74
2022/07/31 09:30:31;;;;;;;2.20;2.00;;;;;;;27.47;58.22;99771.78;5012374;28;20077;-75
2022/07/31 09:33:37;;;;;;;2.00;1.40;;;;;;;27.56;57.36;99770.34;4999797;28;20042;-75
2022/07/31 09:36:05;;;;;;;1.52;1.42;;;;;;;27.63;56.63;99760.13;4993355;28;20042;-75
2022/07/31 09:38:37;;;;;;;1.60;1.50;;;;;;;27.71;54.14;99757.00;5014599;28;20073;-75
2022/07/31 09:41:23;;;;;;;3.95;1.38;;;;;;;27.80;54.93;99755.53;5001131;28;20053;-75
2022/07/31 09:43:59;;;;;;;1.95;1.30;;;;;;;27.89;54.33;99767.56;5000666;28;20057;-75
2022/07/31 09:46:26;;;;;;;1.73;1.48;;;;;;;27.93;54.11;99760.56;4999406;28;20157;-73
2022/07/31 09:48:54;;;;;;;2.42;1.60;;;;;;;27.96;53.68;99759.25;5014756;28;20054;-75
2022/07/31 09:51:21;;;;;;;1.48;1.38;;;;;;;27.97;52.48;99750.88;4998507;28;20157;-76
2022/07/31 09:53:55;;;;;;;1.70;1.50;;;;;;;27.99;54.07;99747.88;5000314;28;20402;-75
2022/07/31 09:56:39;;;;;;;4.55;1.95;;;;;;;28.16;56.02;99747.88;4996628;28;20045;-73
2022/07/31 09:59:07;;;;;;;1.73;1.63;;;;;;;28.22;55.43;99742.25;5000228;28;20487;-75
2022/07/31 10:01:35;;;;;;;2.53;1.40;;;;;;;28.24;54.50;99740.09;5003754;28;20056;-75
2022/07/31 10:04:03;;;;;;;1.95;1.70;;;;;;;28.28;54.59;99733.09;5000406;28;20097;-75
2022/07/31 10:06:31;;;;;;;2.72;1.40;;;;;;;28.32;53.07;99742.38;5003235;28;20035;-75
2022/07/31 10:08:58;;;;;;;1.90;1.35;;;;;;;28.33;51.66;99735.06;5004174;28;20102;-74
2022/07/31 10:11:25;;;;;;;2.25;1.40;;;;;;;28.36;51.29;99737.25;5004833;28;20105;-76
2022/07/31 10:14:17;;;;;;;2.92;1.50;;;;;;;28.47;52.38;99739.00;5002236;28;20029;-76
2022/07/31 10:16:44;;;;;;;2.20;1.50;;;;;;;28.52;51.70;99741.75;4997640;28;20035;-75
2022/07/31 10:19:36;;;;;;;1.75;1.58;;;;;;;28.53;49.76;99737.97;5001062;28;20041;-74
2022/07/31 10:22:26;;;;;;;1.63;1.52;;;;;;;28.61;48.96;99729.38;5003323;28;20042;-74
2022/07/31 10:24:54;;;;;;;1.48;1.23;;;;;;;28.61;47.88;99723.97;5004008;28;20057;-75
2022/07/31 10:27:20;;;;;;;1.48;1.13;;;;;;;28.62;48.30;99722.06;5006345;28;20037;-75
2022/07/31 10:29:55;;;;;;;2.65;1.48;;;;;;;28.68;48.75;99721.03;5001707;28;20121;-74
2022/07/31 10:32:21;;;;;;;1.55;1.20;;;;;;;28.77;48.73;99723.06;5001726;28;20045;-74
2022/07/31 10:35:10;;;;;;;1.52;1.42;;;;;;;28.84;49.14;99720.97;5003565;28;20046;-75
2022/07/31 10:38:24;;;;;;;3.00;1.40;;;;;;;28.91;48.36;99726.19;4989721;28;20097;-73
2022/07/31 10:41:16;;;;;;;1.30;1.20;;;;;;;28.99;42.49;99724.88;5002275;28;20060;-74
2022/07/31 10:43:50;;;;;;;2.35;0.93;;;;;;;29.13;39.59;99709.78;5004012;28;20034;-73
2022/07/31 10:46:34;;;;;;;1.05;0.95;;;;;;;29.11;40.06;99701.88;5002347;28;20390;-74
2022/07/31 10:49:18;;;;;;;2.28;1.10;;;;;;;29.14;40.07;99697.84;4999010;28;20076;-75
2022/07/31 10:52:03;;;;;;;1.98;1.20;;;;;;;29.22;42.34;99702.75;5002714;28;20045;-73
2022/07/31 10:54:56;;;;;;;1.30;1.17;;;;;;;29.33;43.55;99707.25;4995246;28;20073;-74
2022/07/31 10:57:41;;;;;;;2.85;1.50;;;;;;;29.36;43.01;99698.56;5001874;28;20053;-73
2022/07/31 11:00:26;;;;;;;1.75;1.10;;;;;;;29.36;42.06;99701.28;5002122;28;20033;-74
2022/07/31 11:03:20;;;;;;;1.15;1.05;;;;;;;29.46;41.21;99700.50;4967324;28;20057;-74
2022/07/31 11:06:04;;;;;;;1.13;0.90;;;;;;;29.45;39.07;99697.00;4999514;28;20042;-74
2022/07/31 11:08:51;;;;;;;2.65;1.30;;;;;;;29.46;40.93;99698.63;5001910;28;20048;-74
2022/07/31 11:11:55;;;;;;;1.45;1.13;;;;;;;29.49;41.30;99687.22;4987075;28;20041;-74
2022/07/31 11:14:45;;;;;;;;;;;;;;;29.52;39.87;99683.97;4985064;28;20038;-74
2022/07/31 11:17:35;;;;;;;1.63;1.00;;;;;;;29.55;39.65;99686.19;5003920;28;19914;-74
2022/07/31 11:20:29;;;;;;;1.70;1.10;;;;;;;29.58;38.54;99679.38;5000604;28;20052;-75
2022/07/31 11:22:59;;;;;;;2.25;1.00;;;;;;;29.61;38.58;99674.25;5001601;28;20037;-73
2022/07/31 11:25:28;;;;;;;1.38;1.20;;;;;;;29.73;37.64;99667.78;5001586;28;20363;-75
2022/07/31 11:28:08;;;;;;;1.23;1.13;;;;;;;29.79;37.85;99670.25;5003984;28;20026;-76
2022/07/31 11:30:34;;;;;;;1.08;1.05;;;;;;;29.95;37.85;99679.31;5002440;28;20132;-77
2022/07/31 11:33:00;;;;;;;1.95;1.10;;;;;;;29.99;36.14;99680.41;5001457;28;20410;-76
2022/07/31 11:35:28;;;;;;;2.47;1.02;;;;;;;30.08;34.98;99673.38;5000893;28;20363;-76
2022/07/31 11:37:54;;;;;;;1.67;1.10;;;;;;;30.11;34.67;99668.22;5000036;28;20483;-76
2022/07/31 11:40:20;;;;;;;1.40;1.00;;;;;;;30.09;33.54;99667.69;5002523;28;20386;-76
2022/07/31 11:42:46;;;;;;;1.10;1.00;;;;;;;30.15;34.18;99663.06;5003957;28;20030;-76
2022/07/31 11:45:15;;;;;;;1.05;1.05;;;;;;;30.23;34.63;99658.97;5004450;28;20033;-76
2022/07/31 11:47:44;;;;;;;1.95;0.95;;;;;;;30.34;33.50;99661.47;4998555;28;20041;-76
2022/07/31 11:50:11;;;;;;;1.27;0.90;;;;;;;30.39;33.18;99656.06;5004790;28;20435;-75
2022/07/31 11:52:42;;;;;;;2.35;1.08;;;;;;;30.44;33.69;99656.06;5000161;28;20113;-75